createdAt,value
2022-10-13T08:42:03.219Z,14.95
2022-10-13T08:45:06.249Z,14.95
2022-10-13T08:47:33.527Z,14.50
2022-10-13T08:49:36.313Z,14.63
2022-10-13T08:51:40.626Z,14.60
2022-10-13T08:53:45.154Z,14.62
2022-10-13T08:55:52.101Z,14.75
2022-10-13T08:57:54.864Z,14.84
2022-10-13T08:59:59.896Z,14.98
2022-10-13T09:02:12.082Z,15.11
2022-10-13T09:04:36.242Z,15.11
2022-10-13T09:06:43.629Z,15.05
2022-10-13T09:09:05.994Z,15.26
2022-10-13T09:11:11.118Z,15.41
2022-10-13T09:13:13.344Z,15.40
2022-10-13T09:15:17.366Z,15.54
2022-10-13T09:17:21.554Z,15.69
2022-10-13T09:19:36.233Z,15.80
2022-10-13T09:21:41.082Z,15.78
2022-10-13T09:23:43.427Z,15.72
2022-10-13T09:25:49.542Z,15.92
2022-10-13T09:27:53.799Z,15.87
2022-10-13T09:29:56.182Z,16.11
2022-10-13T09:32:27.943Z,16.09
2022-10-13T09:34:30.781Z,16.28
2022-10-13T09:36:34.092Z,16.52
2022-10-13T09:38:36.911Z,16.31
2022-10-13T09:40:40.938Z,16.26
2022-10-13T09:42:51.661Z,16.36
2022-10-13T09:45:15.488Z,16.33
2022-10-13T09:47:22.091Z,16.39
2022-10-13T09:49:30.267Z,16.31
2022-10-13T09:51:43.029Z,16.31
2022-10-13T09:53:47.607Z,16.38
2022-10-13T09:55:49.964Z,16.73
2022-10-13T09:58:00.548Z,16.93
2022-10-13T10:00:13.495Z,16.61
2022-10-13T10:02:26.547Z,16.80
2022-10-13T10:04:38.541Z,16.73
2022-10-13T10:06:41.716Z,16.49
2022-10-13T10:09:05.013Z,16.97
2022-10-13T10:11:20.461Z,16.76
2022-10-13T10:13:24.910Z,16.94
2022-10-13T10:15:54.644Z,17.18
2022-10-13T10:18:03.043Z,17.27
2022-10-13T10:20:24.324Z,17.20
2022-10-13T10:23:05.634Z,17.03
2022-10-13T10:25:35.828Z,17.01
2022-10-13T10:27:44.300Z,17.09
2022-10-13T10:29:56.151Z,17.24
2022-10-13T10:32:23.065Z,17.50
2022-10-13T10:34:43.344Z,17.75
2022-10-13T10:37:11.265Z,17.84
2022-10-13T10:39:19.189Z,18.06
2022-10-13T10:41:46.633Z,18.17
2022-10-13T10:43:55.127Z,18.03
2022-10-13T10:45:59.211Z,18.25
2022-10-13T10:48:07.982Z,18.29
2022-10-13T10:50:15.369Z,18.20
2022-10-13T10:52:24.556Z,18.44
2022-10-13T10:54:45.253Z,18.22
2022-10-13T10:57:06.544Z,18.23
2022-10-13T10:59:40.273Z,18.50
2022-10-13T11:01:52.217Z,18.52
2022-10-13T11:04:01.137Z,18.95
2022-10-13T11:06:06.080Z,19.34
2022-10-13T11:08:26.956Z,19.87
2022-10-13T11:10:29.669Z,21.31
2022-10-13T11:12:53.517Z,22.97
2022-10-13T11:15:09.200Z,24.86
2022-10-13T11:17:16.898Z,26.35
2022-10-13T11:19:32.862Z,26.79
2022-10-13T11:21:53.604Z,27.62
2022-10-13T11:24:01.115Z,28.95
2022-10-13T11:26:27.415Z,30.11
2022-10-13T11:28:42.539Z,29.93
2022-10-13T11:30:55.474Z,30.64
2022-10-13T11:32:57.897Z,31.22
2022-10-13T11:35:06.076Z,30.82
2022-10-13T11:37:17.349Z,30.24
2022-10-13T11:39:28.699Z,29.61
2022-10-13T11:41:52.532Z,30.21
2022-10-13T11:44:06.073Z,30.39
2022-10-13T11:46:22.073Z,30.25
2022-10-13T11:48:47.737Z,30.87
2022-10-13T11:51:21.059Z,30.59
2022-10-13T11:53:28.619Z,30.94
2022-10-13T11:55:43.809Z,30.16
2022-10-13T11:57:46.048Z,29.04
2022-10-13T11:59:52.714Z,27.93
2022-10-13T12:02:18.927Z,26.53
2022-10-13T12:04:27.315Z,25.85
2022-10-13T12:06:33.832Z,25.25
2022-10-13T12:08:37.994Z,24.34
2022-10-13T12:10:41.161Z,23.76
2022-10-13T12:12:49.603Z,23.53
2022-10-13T12:14:54.929Z,23.20
2022-10-13T12:17:01.506Z,22.93
2022-10-13T12:19:20.872Z,22.58
2022-10-13T12:21:23.434Z,22.22
2022-10-13T12:23:26.967Z,21.79
2022-10-13T12:25:30.764Z,21.52
2022-10-13T12:27:45.256Z,21.11
2022-10-13T12:29:48.544Z,20.76
2022-10-13T12:31:51.862Z,20.55
2022-10-13T12:33:54.038Z,20.34
2022-10-13T12:36:12.058Z,20.34
2022-10-13T12:38:19.975Z,20.48
2022-10-13T12:40:23.583Z,20.51
2022-10-13T12:42:35.006Z,20.13
2022-10-13T12:44:37.478Z,20.04
2022-10-13T12:46:42.716Z,19.85
2022-10-13T12:48:45.315Z,19.79
2022-10-13T12:50:47.775Z,19.76
2022-10-13T12:52:56.837Z,20.01
2022-10-13T12:55:00.339Z,20.08
2022-10-13T12:57:14.073Z,20.23
2022-10-13T12:59:18.927Z,19.99
2022-10-13T13:01:28.888Z,19.86
2022-10-13T13:03:34.319Z,19.81
2022-10-13T13:05:47.914Z,19.83
2022-10-13T13:07:53.501Z,19.95
2022-10-13T13:10:08.064Z,19.85
2022-10-13T13:12:13.324Z,19.68
2022-10-13T13:14:34.446Z,19.55
2022-10-13T13:16:36.847Z,19.47
2022-10-13T13:18:42.326Z,19.51
2022-10-13T13:20:44.807Z,19.40
2022-10-13T13:22:47.211Z,19.54
2022-10-13T13:24:51.265Z,19.48
2022-10-13T13:26:53.735Z,19.62
2022-10-13T13:28:56.506Z,19.68
2022-10-13T13:30:59.131Z,19.40
2022-10-13T13:33:01.785Z,19.34
2022-10-13T13:35:05.392Z,19.65
2022-10-13T13:37:31.879Z,19.75
2022-10-13T13:39:34.402Z,19.64
2022-10-13T13:41:36.741Z,19.61
2022-10-13T13:43:39.730Z,19.49
2022-10-13T13:45:42.563Z,19.34
2022-10-13T13:47:45.793Z,19.30
2022-10-13T13:49:49.484Z,19.29
2022-10-13T13:51:52.116Z,19.28
2022-10-13T13:53:54.536Z,19.41
2022-10-13T13:55:57.041Z,19.44
2022-10-13T13:57:59.592Z,19.59
2022-10-13T14:00:02.011Z,19.62
2022-10-13T14:02:20.473Z,19.41
2022-10-13T14:04:23.063Z,19.28
2022-10-13T14:06:25.662Z,19.19
2022-10-13T14:08:31.430Z,19.09
2022-10-13T14:10:34.174Z,18.99
2022-10-13T14:12:36.740Z,18.89
2022-10-13T14:14:39.026Z,18.96
2022-10-13T14:16:43.314Z,18.89
2022-10-13T14:18:45.697Z,18.63
2022-10-13T14:20:47.993Z,18.73
2022-10-13T14:22:50.518Z,18.69
2022-10-13T14:24:52.853Z,18.61
2022-10-13T14:26:55.065Z,18.67
2022-10-13T14:28:58.455Z,18.52
2022-10-13T14:31:04.113Z,18.52
2022-10-13T14:33:08.153Z,18.35
2022-10-13T14:35:10.982Z,18.30
2022-10-13T14:37:13.224Z,18.31
2022-10-13T14:39:15.503Z,18.44
2022-10-13T14:41:19.018Z,18.42
2022-10-13T14:43:24.697Z,18.19
2022-10-13T14:45:27.173Z,18.13
2022-10-13T14:47:29.771Z,18.12
2022-10-13T14:49:32.604Z,18.23
2022-10-13T14:51:34.900Z,18.29
2022-10-13T14:53:39.834Z,18.35
2022-10-13T14:55:44.980Z,18.20
2022-10-13T14:57:48.385Z,18.23
2022-10-13T14:59:51.866Z,18.30
2022-10-13T15:01:54.133Z,18.07
2022-10-13T15:03:56.722Z,18.10
2022-10-13T15:05:59.572Z,18.12
2022-10-13T15:08:03.649Z,18.07
2022-10-13T15:10:07.282Z,17.96
2022-10-13T15:12:12.743Z,17.89
2022-10-13T15:14:15.031Z,17.71
2022-10-13T15:16:27.601Z,17.83
2022-10-13T15:18:31.729Z,18.02
2022-10-13T15:20:33.992Z,17.93
2022-10-13T15:22:36.213Z,17.91
2022-10-13T15:24:41.026Z,17.90
2022-10-13T15:26:43.224Z,17.77
2022-10-13T15:28:49.774Z,17.72
2022-10-13T15:30:52.594Z,17.73
2022-10-13T15:32:56.531Z,17.64
2022-10-13T15:34:58.768Z,17.65
2022-10-13T15:37:02.832Z,17.63
2022-10-13T15:39:06.020Z,17.55
2022-10-13T15:41:09.766Z,17.47
2022-10-13T15:43:12.694Z,17.43
2022-10-13T15:45:15.881Z,17.43
2022-10-13T15:47:18.221Z,17.37
2022-10-13T15:49:20.825Z,17.34
2022-10-13T15:51:24.328Z,17.22
2022-10-13T15:53:27.002Z,17.27
2022-10-13T15:55:29.465Z,17.29
2022-10-13T15:57:31.879Z,17.18
2022-10-13T15:59:36.947Z,17.23
2022-10-13T16:01:39.489Z,17.24
2022-10-13T16:03:45.996Z,17.19
2022-10-13T16:05:48.311Z,17.17
2022-10-13T16:07:50.838Z,17.15
2022-10-13T16:09:53.381Z,17.11
2022-10-13T16:11:55.597Z,17.01
2022-10-13T16:13:58.106Z,17.07
2022-10-13T16:16:01.233Z,16.99
2022-10-13T16:18:04.246Z,16.82
2022-10-13T16:20:07.376Z,16.88
2022-10-13T16:22:09.906Z,16.88
2022-10-13T16:24:12.426Z,16.83
2022-10-13T16:26:17.459Z,16.87
2022-10-13T16:28:20.214Z,16.87
2022-10-13T16:30:22.513Z,16.83
2022-10-13T16:32:24.736Z,16.76
2022-10-13T16:34:27.760Z,16.77
2022-10-13T16:36:29.982Z,16.74
2022-10-13T16:38:32.445Z,16.69
2022-10-13T16:40:39.047Z,16.79
2022-10-13T16:42:42.415Z,16.70
2022-10-13T16:44:44.640Z,16.71
2022-10-13T16:46:49.654Z,16.67
2022-10-13T16:48:52.040Z,16.55
2022-10-13T16:50:54.320Z,16.62
2022-10-13T16:52:59.658Z,16.57
2022-10-13T16:55:02.749Z,16.60
2022-10-13T16:57:05.132Z,16.52
2022-10-13T16:59:07.818Z,16.50
2022-10-13T17:01:12.074Z,16.53
2022-10-13T17:03:14.454Z,16.54
2022-10-13T17:05:17.266Z,16.47
2022-10-13T17:07:19.818Z,16.48
2022-10-13T17:09:22.497Z,16.48
2022-10-13T17:11:28.238Z,16.49
2022-10-13T17:13:33.393Z,16.38
2022-10-13T17:15:35.963Z,16.37
2022-10-13T17:17:38.637Z,16.38
2022-10-13T17:19:40.918Z,16.31
2022-10-13T17:21:43.495Z,16.34
2022-10-13T17:23:48.659Z,16.37
2022-10-13T17:25:52.334Z,16.26
2022-10-13T17:27:57.222Z,16.31
2022-10-13T17:30:00.181Z,16.21
2022-10-13T17:32:03.228Z,16.26
2022-10-13T17:34:06.415Z,16.08
2022-10-13T17:36:14.930Z,16.16
2022-10-13T17:38:17.540Z,16.27
2022-10-13T17:40:20.172Z,16.03
2022-10-13T17:42:23.907Z,16.33
2022-10-13T17:44:27.603Z,16.13
2022-10-13T17:46:40.135Z,16.02
2022-10-13T17:48:43.515Z,16.02
2022-10-13T17:50:46.308Z,15.99
2022-10-13T17:52:49.323Z,16.01
2022-10-13T17:54:52.342Z,16.01
2022-10-13T17:56:56.928Z,15.90
2022-10-13T17:59:00.929Z,16.06
2022-10-13T18:01:13.248Z,16.14
2022-10-13T18:03:18.168Z,15.85
2022-10-13T18:05:20.640Z,15.66
2022-10-13T18:07:24.082Z,15.47
2022-10-13T18:09:26.829Z,15.58
2022-10-13T18:11:29.573Z,15.62
2022-10-13T18:13:32.470Z,15.62
2022-10-13T18:15:37.237Z,15.67
2022-10-13T18:17:40.201Z,15.69
2022-10-13T18:19:44.069Z,15.63
2022-10-13T18:21:47.755Z,15.56
2022-10-13T18:23:50.468Z,15.52
2022-10-13T18:25:54.002Z,15.65
2022-10-13T18:27:58.684Z,15.66
2022-10-13T18:30:01.353Z,15.66
2022-10-13T18:32:06.095Z,15.57
2022-10-13T18:34:12.633Z,15.61
2022-10-13T18:36:18.766Z,15.51
2022-10-13T18:38:21.486Z,15.49
2022-10-13T18:40:24.851Z,15.44
2022-10-13T18:42:28.172Z,15.46
2022-10-13T18:44:30.812Z,15.37
2022-10-13T18:46:34.717Z,15.38
2022-10-13T18:48:37.712Z,15.49
2022-10-13T18:50:40.258Z,15.43
2022-10-13T18:52:43.745Z,15.45
2022-10-13T18:54:46.418Z,15.36
2022-10-13T18:56:49.870Z,15.36
2022-10-13T18:58:59.313Z,15.34
2022-10-13T19:01:04.590Z,15.29
2022-10-13T19:03:07.558Z,15.11
2022-10-13T19:05:10.640Z,15.18
2022-10-13T19:07:15.589Z,15.00
2022-10-13T19:09:18.863Z,14.98
2022-10-13T19:11:22.317Z,14.98
2022-10-13T19:13:27.068Z,14.95
2022-10-13T19:15:29.732Z,14.96
2022-10-13T19:17:33.295Z,15.01
2022-10-13T19:19:36.003Z,15.01
2022-10-13T19:21:39.527Z,14.95
2022-10-13T19:23:44.503Z,14.83
2022-10-13T19:25:48.862Z,14.84
2022-10-13T19:27:53.935Z,14.72
2022-10-13T19:29:56.917Z,14.69
2022-10-13T19:32:00.763Z,14.66
2022-10-13T19:34:03.516Z,14.60
2022-10-13T19:36:06.697Z,14.56
2022-10-13T19:38:11.200Z,14.63
2022-10-13T19:40:14.086Z,14.63
2022-10-13T19:42:16.855Z,14.51
2022-10-13T19:44:20.717Z,14.46
2022-10-13T19:46:23.559Z,14.50
2022-10-13T19:48:26.754Z,14.45
2022-10-13T19:50:30.447Z,14.41
2022-10-13T19:52:33.509Z,14.34
2022-10-13T19:54:37.552Z,14.35
2022-10-13T19:56:40.283Z,14.36
2022-10-13T19:58:43.736Z,14.23
2022-10-13T20:00:47.107Z,14.26
2022-10-13T20:02:50.397Z,14.25
2022-10-13T20:04:53.015Z,14.10
2022-10-13T20:06:55.837Z,14.16
2022-10-13T20:08:59.756Z,14.10
2022-10-13T20:11:07.704Z,14.14
2022-10-13T20:13:11.133Z,14.19
2022-10-13T20:15:13.734Z,14.28
2022-10-13T20:17:18.460Z,14.18
2022-10-13T20:19:21.079Z,14.11
2022-10-13T20:21:25.323Z,14.14
2022-10-13T20:23:27.590Z,13.93
2022-10-13T20:25:29.793Z,13.91
2022-10-13T20:27:32.490Z,13.74
2022-10-13T20:29:34.749Z,13.65
2022-10-13T20:31:37.119Z,13.74
2022-10-13T20:33:40.399Z,13.61
2022-10-13T20:35:42.621Z,13.56
2022-10-13T20:37:45.048Z,13.56
2022-10-13T20:39:49.394Z,13.74
2022-10-13T20:41:52.742Z,13.79
2022-10-13T20:43:57.393Z,13.64
2022-10-13T20:46:02.037Z,13.55
2022-10-13T20:48:04.284Z,13.52
2022-10-13T20:50:08.574Z,13.52
2022-10-13T20:52:11.066Z,13.35
2022-10-13T20:54:14.798Z,13.34
2022-10-13T20:56:22.968Z,13.23
2022-10-13T20:58:27.646Z,13.23
2022-10-13T21:00:30.976Z,13.24
2022-10-13T21:02:33.365Z,13.33
2022-10-13T21:04:35.811Z,13.37
2022-10-13T21:06:38.077Z,13.43
2022-10-13T21:08:41.004Z,13.37
2022-10-13T21:10:44.951Z,13.24
2022-10-13T21:12:47.156Z,13.27
2022-10-13T21:14:49.400Z,13.23
2022-10-13T21:16:51.928Z,13.11
2022-10-13T21:18:55.845Z,13.14
2022-10-13T21:21:06.079Z,13.25
2022-10-13T21:23:10.681Z,13.19
2022-10-13T21:25:15.301Z,13.18
2022-10-13T21:27:18.115Z,13.18
2022-10-13T21:29:20.723Z,13.19
2022-10-13T21:31:24.236Z,13.07
2022-10-13T21:33:26.488Z,13.16
2022-10-13T21:35:29.486Z,13.19
2022-10-13T21:37:36.613Z,13.21
2022-10-13T21:39:38.883Z,13.27
2022-10-13T21:41:41.446Z,13.25
2022-10-13T21:43:43.677Z,13.09
2022-10-13T21:45:46.203Z,13.03
2022-10-13T21:47:49.218Z,12.99
2022-10-13T21:49:53.330Z,12.95
2022-10-13T21:51:55.505Z,12.89
2022-10-13T21:54:00.785Z,12.88
2022-10-13T21:56:09.452Z,12.76
2022-10-13T21:58:11.974Z,12.61
2022-10-13T22:00:15.177Z,12.62
2022-10-13T22:02:17.770Z,12.72
2022-10-13T22:04:19.961Z,12.78
2022-10-13T22:06:22.742Z,12.75
2022-10-13T22:08:37.671Z,12.54
